createdAt,value
2022-12-15T00:00:11.168Z,-3.17
2022-12-15T00:01:31.389Z,-3.16
2022-12-15T00:02:51.758Z,-3.16
2022-12-15T00:04:13.908Z,-3.15
2022-12-15T00:05:34.496Z,-3.14
2022-12-15T00:06:55.059Z,-3.12
2022-12-15T00:08:15.148Z,-3.12
2022-12-15T00:09:35.450Z,-3.11
2022-12-15T00:10:56.880Z,-3.10
2022-12-15T00:12:17.238Z,-3.09
2022-12-15T00:13:37.605Z,-3.08
2022-12-15T00:14:58.151Z,-3.09
2022-12-15T00:16:18.689Z,-3.09
2022-12-15T00:17:38.895Z,-3.09
2022-12-15T00:18:59.023Z,-3.08
2022-12-15T00:20:20.539Z,-3.08
2022-12-15T00:21:40.979Z,-3.07
2022-12-15T00:23:01.328Z,-3.05
2022-12-15T00:24:21.792Z,-3.02
2022-12-15T00:25:42.321Z,-3.02
2022-12-15T00:27:03.222Z,-3.00
2022-12-15T00:28:23.358Z,-2.99
2022-12-15T00:29:43.587Z,-2.97
2022-12-15T00:31:04.077Z,-2.94
2022-12-15T00:32:24.344Z,-2.95
2022-12-15T00:33:44.711Z,-2.93
2022-12-15T00:35:04.992Z,-2.93
2022-12-15T00:36:27.463Z,-2.95
2022-12-15T00:37:47.869Z,-3.00
2022-12-15T00:38:50.554Z,-3.05
2022-12-15T00:39:59.189Z,-3.06
2022-12-15T00:41:02.002Z,-3.07
2022-12-15T00:42:04.041Z,-3.07
2022-12-15T00:43:06.791Z,-3.06
2022-12-15T00:44:08.656Z,-3.04
2022-12-15T00:45:12.005Z,-3.02
2022-12-15T00:46:32.564Z,-3.01
2022-12-15T00:47:34.467Z,-3.01
2022-12-15T00:48:36.180Z,-3.01
2022-12-15T00:50:07.749Z,-3.01
2022-12-15T00:51:12.282Z,-3.01
2022-12-15T00:52:34.106Z,-3.01
2022-12-15T00:53:54.515Z,-3.00
2022-12-15T00:55:14.560Z,-2.99
2022-12-15T00:56:35.017Z,-2.98
2022-12-15T00:57:55.669Z,-2.98
2022-12-15T00:59:15.788Z,-2.97
2022-12-15T01:00:36.027Z,-2.96
2022-12-15T01:01:56.687Z,-2.96
2022-12-15T01:03:17.234Z,-2.95
2022-12-15T01:04:37.266Z,-2.95
2022-12-15T01:05:57.471Z,-2.93
2022-12-15T01:07:19.141Z,-2.93
2022-12-15T01:08:39.713Z,-2.94
2022-12-15T01:10:00.035Z,-2.93
2022-12-15T01:11:20.027Z,-2.95
2022-12-15T01:12:40.327Z,-2.94
2022-12-15T01:14:00.926Z,-2.96
2022-12-15T01:15:21.708Z,-2.95
2022-12-15T01:16:41.827Z,-2.98
2022-12-15T01:18:02.278Z,-2.99
2022-12-15T01:19:22.575Z,-3.01
2022-12-15T01:20:25.337Z,-3.04
2022-12-15T01:21:27.125Z,-3.06
2022-12-15T01:22:31.244Z,-3.07
2022-12-15T01:23:33.862Z,-3.08
2022-12-15T01:24:37.104Z,-3.12
2022-12-15T01:25:39.320Z,-3.14
2022-12-15T01:26:42.033Z,-3.16
2022-12-15T01:27:44.107Z,-3.17
2022-12-15T01:28:46.803Z,-3.17
2022-12-15T01:29:48.557Z,-3.16
2022-12-15T01:30:51.906Z,-3.15
2022-12-15T01:31:53.750Z,-3.13
2022-12-15T01:32:56.461Z,-3.13
2022-12-15T01:33:58.154Z,-3.12
2022-12-15T01:35:00.833Z,-3.10
2022-12-15T01:36:02.640Z,-3.10
2022-12-15T01:37:05.408Z,-3.10
2022-12-15T01:38:08.896Z,-3.08
2022-12-15T01:39:11.635Z,-3.09
2022-12-15T01:40:34.379Z,-3.08
2022-12-15T01:41:36.238Z,-3.10
2022-12-15T01:42:38.884Z,-3.12
2022-12-15T01:43:42.128Z,-3.14
2022-12-15T01:44:45.012Z,-3.15
2022-12-15T01:45:53.663Z,-3.15
2022-12-15T01:46:56.335Z,-3.15
2022-12-15T01:48:02.748Z,-3.17
2022-12-15T01:49:18.053Z,-3.16
2022-12-15T01:50:20.015Z,-3.16
2022-12-15T01:51:27.722Z,-3.15
2022-12-15T01:52:30.683Z,-3.16
2022-12-15T01:53:37.636Z,-3.15
2022-12-15T01:54:45.301Z,-3.14
2022-12-15T01:55:50.943Z,-3.14
2022-12-15T01:56:56.499Z,-3.14
2022-12-15T01:58:02.313Z,-3.14
2022-12-15T01:59:06.515Z,-3.14
2022-12-15T02:00:09.075Z,-3.12
2022-12-15T02:01:12.138Z,-3.13
2022-12-15T02:02:14.904Z,-3.12
2022-12-15T02:03:17.896Z,-3.12
2022-12-15T02:04:21.355Z,-3.11
2022-12-15T02:05:25.283Z,-3.10
2022-12-15T02:06:28.420Z,-3.11
2022-12-15T02:07:31.129Z,-3.11
2022-12-15T02:08:34.201Z,-3.10
2022-12-15T02:09:36.966Z,-3.11
2022-12-15T02:10:50.202Z,-3.09
2022-12-15T02:11:59.037Z,-3.09
2022-12-15T02:13:06.968Z,-3.08
2022-12-15T02:14:11.129Z,-3.07
2022-12-15T02:15:21.846Z,-3.06
2022-12-15T02:16:31.870Z,-3.06
2022-12-15T02:17:39.004Z,-3.07
2022-12-15T02:18:46.061Z,-3.06
2022-12-15T02:20:23.301Z,-3.06
2022-12-15T02:21:30.931Z,-3.07
2022-12-15T02:22:41.131Z,-3.07
2022-12-15T02:24:17.174Z,-3.09
2022-12-15T02:25:38.303Z,-3.10
2022-12-15T02:27:14.454Z,-3.11
2022-12-15T02:28:27.448Z,-3.10
2022-12-15T02:29:40.516Z,-3.11
2022-12-15T02:31:11.615Z,-3.11
2022-12-15T02:32:15.374Z,-3.10
2022-12-15T02:33:21.440Z,-3.10
2022-12-15T02:34:28.141Z,-3.10
2022-12-15T02:35:36.105Z,-3.10
2022-12-15T02:36:39.472Z,-3.11
2022-12-15T02:37:42.486Z,-3.12
2022-12-15T02:38:45.066Z,-3.13
2022-12-15T02:39:47.796Z,-3.13
2022-12-15T02:40:57.989Z,-3.15
2022-12-15T02:42:00.688Z,-3.14
2022-12-15T02:43:04.680Z,-3.15
2022-12-15T02:44:11.118Z,-3.15
2022-12-15T02:45:14.602Z,-3.16
2022-12-15T02:46:24.927Z,-3.17
2022-12-15T02:47:33.047Z,-3.15
2022-12-15T02:48:42.201Z,-3.15
2022-12-15T02:49:53.382Z,-3.17
2022-12-15T02:51:06.230Z,-3.18
2022-12-15T02:52:14.931Z,-3.18
2022-12-15T02:53:29.043Z,-3.19
2022-12-15T02:54:40.610Z,-3.22
2022-12-15T02:55:50.618Z,-3.23
2022-12-15T02:57:03.907Z,-3.24
2022-12-15T02:58:12.399Z,-3.26
2022-12-15T02:59:18.357Z,-3.28
2022-12-15T03:00:21.586Z,-3.30
2022-12-15T03:01:28.069Z,-3.30
2022-12-15T03:02:32.514Z,-3.32
2022-12-15T03:03:35.564Z,-3.33
2022-12-15T03:04:38.707Z,-3.35
2022-12-15T03:05:40.496Z,-3.35
2022-12-15T03:06:43.403Z,-3.35
2022-12-15T03:07:45.564Z,-3.36
2022-12-15T03:08:52.592Z,-3.37
2022-12-15T03:09:54.571Z,-3.36
2022-12-15T03:10:58.588Z,-3.39
2022-12-15T03:12:00.463Z,-3.39
2022-12-15T03:13:03.173Z,-3.41
2022-12-15T03:14:04.897Z,-3.40
2022-12-15T03:15:08.684Z,-3.42
2022-12-15T03:16:10.489Z,-3.45
2022-12-15T03:17:14.624Z,-3.45
2022-12-15T03:18:16.435Z,-3.47
2022-12-15T03:19:19.220Z,-3.49
2022-12-15T03:20:21.955Z,-3.51
2022-12-15T03:21:23.660Z,-3.50
2022-12-15T03:22:26.510Z,-3.51
2022-12-15T03:23:28.871Z,-3.52
2022-12-15T03:24:31.825Z,-3.53
2022-12-15T03:25:33.862Z,-3.57
2022-12-15T03:26:36.825Z,-3.58
2022-12-15T03:27:38.503Z,-3.61
2022-12-15T03:28:41.201Z,-3.62
2022-12-15T03:29:42.901Z,-3.66
2022-12-15T03:30:46.116Z,-3.69
2022-12-15T03:31:52.752Z,-3.71
2022-12-15T03:32:56.830Z,-3.74
2022-12-15T03:33:58.594Z,-3.77
2022-12-15T03:35:01.808Z,-3.79
2022-12-15T03:36:03.652Z,-3.81
2022-12-15T03:37:06.344Z,-3.83
2022-12-15T03:38:08.121Z,-3.88
2022-12-15T03:39:10.853Z,-3.89
2022-12-15T03:40:14.029Z,-3.92
2022-12-15T03:41:17.888Z,-3.93
2022-12-15T03:42:39.579Z,-3.97
2022-12-15T03:43:42.978Z,-3.99
2022-12-15T03:44:44.695Z,-4.01
2022-12-15T03:45:47.511Z,-4.02
2022-12-15T03:46:49.287Z,-4.04
2022-12-15T03:47:52.421Z,-4.06
2022-12-15T03:48:55.545Z,-4.07
2022-12-15T03:49:58.315Z,-4.08
2022-12-15T03:51:00.077Z,-4.08
2022-12-15T03:52:02.853Z,-4.08
2022-12-15T03:53:05.128Z,-4.10
2022-12-15T03:54:08.872Z,-4.11
2022-12-15T03:55:11.550Z,-4.10
2022-12-15T03:56:14.253Z,-4.13
2022-12-15T03:57:15.944Z,-4.14
2022-12-15T03:58:18.681Z,-4.15
2022-12-15T03:59:20.374Z,-4.16
2022-12-15T04:00:25.347Z,-4.17
2022-12-15T04:01:28.952Z,-4.18
2022-12-15T04:02:31.880Z,-4.20
2022-12-15T04:03:34.432Z,-4.21
2022-12-15T04:04:39.059Z,-4.22
2022-12-15T04:05:40.894Z,-4.26
2022-12-15T04:06:43.659Z,-4.27
2022-12-15T04:07:45.488Z,-4.29
2022-12-15T04:08:49.792Z,-4.28
2022-12-15T04:09:51.602Z,-4.30
2022-12-15T04:10:54.302Z,-4.31
2022-12-15T04:11:56.064Z,-4.32
2022-12-15T04:12:59.502Z,-4.32
2022-12-15T04:14:03.853Z,-4.32
2022-12-15T04:15:08.132Z,-4.31
2022-12-15T04:16:13.623Z,-4.30
2022-12-15T04:17:18.024Z,-4.31
2022-12-15T04:18:20.819Z,-4.32
2022-12-15T04:19:41.179Z,-4.34
2022-12-15T04:20:50.269Z,-4.37
2022-12-15T04:21:52.201Z,-4.37
2022-12-15T04:22:54.969Z,-4.37
2022-12-15T04:24:14.994Z,-4.36
2022-12-15T04:25:36.750Z,-4.35
2022-12-15T04:26:56.985Z,-4.34
2022-12-15T04:28:17.884Z,-4.33
2022-12-15T04:29:38.430Z,-4.31
2022-12-15T04:31:01.780Z,-4.31
2022-12-15T04:32:21.900Z,-4.30
2022-12-15T04:33:42.717Z,-4.29
2022-12-15T04:35:03.241Z,-4.27
2022-12-15T04:36:25.732Z,-4.25
2022-12-15T04:37:46.114Z,-4.24
2022-12-15T04:39:06.381Z,-4.25
2022-12-15T04:40:28.161Z,-4.23
2022-12-15T04:41:50.561Z,-4.22
2022-12-15T04:43:11.068Z,-4.22
2022-12-15T04:44:31.565Z,-4.22
2022-12-15T04:45:51.991Z,-4.22
2022-12-15T04:47:12.321Z,-4.23
2022-12-15T04:48:32.597Z,-4.23
2022-12-15T04:49:52.997Z,-4.23
2022-12-15T04:51:13.403Z,-4.23
2022-12-15T04:52:34.939Z,-4.25
2022-12-15T04:53:55.234Z,-4.25
2022-12-15T04:55:15.560Z,-4.23
2022-12-15T04:56:35.877Z,-4.22
2022-12-15T04:57:56.281Z,-4.22
2022-12-15T04:59:16.695Z,-4.21
2022-12-15T05:00:37.118Z,-4.21
2022-12-15T05:01:57.653Z,-4.19
2022-12-15T05:03:23.381Z,-4.20
2022-12-15T05:04:43.671Z,-4.17
2022-12-15T05:06:04.289Z,-4.17
2022-12-15T05:07:24.600Z,-4.16
2022-12-15T05:08:46.303Z,-4.17
2022-12-15T05:10:14.972Z,-4.17
2022-12-15T05:11:35.963Z,-4.16
2022-12-15T05:12:56.279Z,-4.16
2022-12-15T05:14:16.652Z,-4.15
2022-12-15T05:15:36.896Z,-4.16
2022-12-15T05:16:56.964Z,-4.20
2022-12-15T05:18:17.139Z,-4.27
2022-12-15T05:19:37.699Z,-4.31
2022-12-15T05:20:58.190Z,-4.33
2022-12-15T05:22:18.362Z,-4.35
2022-12-15T05:23:38.695Z,-4.35
2022-12-15T05:25:00.301Z,-4.37
2022-12-15T05:26:20.600Z,-4.39
2022-12-15T05:27:41.034Z,-4.42
2022-12-15T05:29:01.519Z,-4.42
2022-12-15T05:30:22.017Z,-4.42
2022-12-15T05:31:42.511Z,-4.42
2022-12-15T05:32:45.168Z,-4.41
2022-12-15T05:33:46.945Z,-4.39
2022-12-15T05:34:49.745Z,-4.40
2022-12-15T05:35:51.479Z,-4.39
2022-12-15T05:36:54.950Z,-4.38
2022-12-15T05:37:56.628Z,-4.38
2022-12-15T05:38:59.340Z,-4.37
2022-12-15T05:40:02.426Z,-4.37
2022-12-15T05:41:05.189Z,-4.34
2022-12-15T05:42:07.883Z,-4.35
2022-12-15T05:43:09.741Z,-4.33
2022-12-15T05:44:12.628Z,-4.32
2022-12-15T05:45:14.373Z,-4.33
2022-12-15T05:46:17.142Z,-4.32
2022-12-15T05:47:18.834Z,-4.33
2022-12-15T05:48:21.561Z,-4.33
2022-12-15T05:49:24.374Z,-4.34
2022-12-15T05:50:27.127Z,-4.35
2022-12-15T05:51:28.978Z,-4.36
2022-12-15T05:52:31.713Z,-4.37
2022-12-15T05:53:33.873Z,-4.39
2022-12-15T05:54:36.794Z,-4.40
2022-12-15T05:55:39.939Z,-4.41
2022-12-15T05:56:42.682Z,-4.42
2022-12-15T05:57:44.641Z,-4.44
2022-12-15T05:58:47.299Z,-4.45
2022-12-15T05:59:48.940Z,-4.48
2022-12-15T06:00:51.699Z,-4.50
2022-12-15T06:01:53.505Z,-4.51
2022-12-15T06:02:56.244Z,-4.54
2022-12-15T06:03:58.206Z,-4.58
2022-12-15T06:05:00.981Z,-4.61
2022-12-15T06:06:02.839Z,-4.62
2022-12-15T06:07:05.683Z,-4.65
2022-12-15T06:08:07.384Z,-4.67
2022-12-15T06:09:10.666Z,-4.66
2022-12-15T06:10:13.119Z,-4.67
2022-12-15T06:11:19.435Z,-4.66
2022-12-15T06:12:21.218Z,-4.67
2022-12-15T06:13:24.595Z,-4.64
2022-12-15T06:14:27.258Z,-4.64
2022-12-15T06:15:28.955Z,-4.65
2022-12-15T06:16:31.895Z,-4.64
2022-12-15T06:17:33.700Z,-4.63
2022-12-15T06:18:38.988Z,-4.62
2022-12-15T06:19:40.686Z,-4.59
2022-12-15T06:20:43.356Z,-4.58
2022-12-15T06:21:46.105Z,-4.57
2022-12-15T06:22:50.133Z,-4.54
2022-12-15T06:23:53.562Z,-4.52
2022-12-15T06:24:55.322Z,-4.48
2022-12-15T06:25:57.989Z,-4.44
2022-12-15T06:27:02.065Z,-4.39
2022-12-15T06:28:05.062Z,-4.35
2022-12-15T06:29:09.016Z,-4.33
2022-12-15T06:30:12.489Z,-4.31
2022-12-15T06:31:14.892Z,-4.25
2022-12-15T06:32:17.655Z,-4.22
2022-12-15T06:33:19.665Z,-4.19
2022-12-15T06:34:22.492Z,-4.17
2022-12-15T06:35:24.193Z,-4.15
2022-12-15T06:36:28.486Z,-4.12
2022-12-15T06:37:30.248Z,-4.13
2022-12-15T06:38:33.853Z,-4.13
2022-12-15T06:39:35.576Z,-4.16
2022-12-15T06:40:38.466Z,-4.17
2022-12-15T06:41:41.234Z,-4.21
2022-12-15T06:42:45.404Z,-4.25
2022-12-15T06:43:49.912Z,-4.31
2022-12-15T06:44:52.581Z,-4.36
2022-12-15T06:45:54.524Z,-4.42
2022-12-15T06:46:57.242Z,-4.46
2022-12-15T06:48:01.524Z,-4.51
2022-12-15T06:49:04.889Z,-4.54
2022-12-15T06:50:07.789Z,-4.58
2022-12-15T06:51:16.572Z,-4.60
2022-12-15T06:52:20.195Z,-4.63
2022-12-15T06:53:23.318Z,-4.66
2022-12-15T06:54:26.057Z,-4.67
2022-12-15T06:55:27.781Z,-4.68
2022-12-15T06:56:34.702Z,-4.68
2022-12-15T06:57:36.813Z,-4.69
2022-12-15T06:58:43.255Z,-4.70
2022-12-15T06:59:46.113Z,-4.72
2022-12-15T07:00:47.811Z,-4.72
2022-12-15T07:01:51.045Z,-4.72
2022-12-15T07:02:54.206Z,-4.73
2022-12-15T07:03:56.659Z,-4.73
2022-12-15T07:04:59.946Z,-4.74
2022-12-15T07:06:02.722Z,-4.74
2022-12-15T07:07:05.428Z,-4.74
2022-12-15T07:08:07.250Z,-4.73
2022-12-15T07:09:15.939Z,-4.75
2022-12-15T07:10:17.942Z,-4.76
2022-12-15T07:11:21.676Z,-4.77
2022-12-15T07:12:24.406Z,-4.80
2022-12-15T07:13:26.135Z,-4.82
2022-12-15T07:14:32.214Z,-4.83
2022-12-15T07:15:34.015Z,-4.85
2022-12-15T07:16:36.815Z,-4.86
2022-12-15T07:17:38.563Z,-4.89
2022-12-15T07:18:41.575Z,-4.92
2022-12-15T07:19:43.299Z,-4.94
2022-12-15T07:20:47.508Z,-4.95
2022-12-15T07:21:53.183Z,-4.97
2022-12-15T07:22:55.385Z,-4.98
2022-12-15T07:23:58.923Z,-4.98
2022-12-15T07:25:01.392Z,-4.98
2022-12-15T07:26:11.126Z,-4.96
2022-12-15T07:27:14.355Z,-4.96
2022-12-15T07:28:18.058Z,-4.94
2022-12-15T07:29:24.035Z,-4.94
2022-12-15T07:30:27.483Z,-4.94
2022-12-15T07:31:31.209Z,-4.94
2022-12-15T07:32:34.510Z,-4.94
2022-12-15T07:33:38.405Z,-4.96
2022-12-15T07:34:40.052Z,-4.94
2022-12-15T07:35:42.808Z,-4.95
2022-12-15T07:36:51.616Z,-4.95
2022-12-15T07:37:53.678Z,-4.96
2022-12-15T07:39:00.748Z,-4.94
2022-12-15T07:40:02.685Z,-4.95
2022-12-15T07:41:07.605Z,-4.94
2022-12-15T07:42:09.371Z,-4.94
2022-12-15T07:43:12.088Z,-4.93
2022-12-15T07:44:15.403Z,-4.91
2022-12-15T07:45:17.268Z,-4.90
2022-12-15T07:46:21.506Z,-4.88
2022-12-15T07:47:23.348Z,-4.87
2022-12-15T07:48:27.387Z,-4.84
2022-12-15T07:49:30.310Z,-4.81
2022-12-15T07:50:31.997Z,-4.79
2022-12-15T07:51:34.724Z,-4.79
2022-12-15T07:52:36.834Z,-4.79
2022-12-15T07:53:40.077Z,-4.78
2022-12-15T07:54:42.000Z,-4.80
2022-12-15T07:56:06.032Z,-4.78
2022-12-15T07:57:08.396Z,-4.75
2022-12-15T07:58:12.902Z,-4.72
2022-12-15T07:59:17.342Z,-4.70
2022-12-15T08:00:20.684Z,-4.67
2022-12-15T08:01:25.453Z,-4.64
2022-12-15T08:02:28.299Z,-4.64
2022-12-15T08:03:31.882Z,-4.61
2022-12-15T08:04:34.321Z,-4.61
2022-12-15T08:05:37.477Z,-4.59
2022-12-15T08:06:40.636Z,-4.58
2022-12-15T08:07:43.135Z,-4.52
2022-12-15T08:08:50.659Z,-4.49
2022-12-15T08:09:53.888Z,-4.47
2022-12-15T08:10:57.837Z,-4.44
2022-12-15T08:12:00.757Z,-4.41
2022-12-15T08:13:03.595Z,-4.39
2022-12-15T08:14:10.652Z,-4.36
2022-12-15T08:15:18.364Z,-4.32
2022-12-15T08:16:21.514Z,-4.30
2022-12-15T08:17:24.765Z,-4.26
2022-12-15T08:18:27.797Z,-4.23
2022-12-15T08:19:31.847Z,-4.21
2022-12-15T08:20:35.542Z,-4.20
2022-12-15T08:21:40.468Z,-4.18
2022-12-15T08:22:42.526Z,-4.15
2022-12-15T08:23:46.072Z,-4.13
2022-12-15T08:24:49.256Z,-4.11
2022-12-15T08:25:52.631Z,-4.09
2022-12-15T08:26:55.615Z,-4.07
2022-12-15T08:27:58.656Z,-4.05
2022-12-15T08:29:31.910Z,-4.03
2022-12-15T08:30:26.516Z,-4.01
2022-12-15T08:31:28.885Z,-4.00
2022-12-15T08:32:32.991Z,-3.98
2022-12-15T08:33:35.712Z,-3.96
2022-12-15T08:34:39.241Z,-3.94
2022-12-15T08:35:56.346Z,-3.92
2022-12-15T08:36:59.985Z,-3.90
2022-12-15T08:38:05.666Z,-3.88
2022-12-15T08:39:08.652Z,-3.86
2022-12-15T08:40:12.188Z,-3.83
2022-12-15T08:41:16.454Z,-3.81
2022-12-15T08:42:19.137Z,-3.79
2022-12-15T08:43:20.998Z,-3.79
2022-12-15T08:44:23.869Z,-3.76
2022-12-15T08:45:25.733Z,-3.74
2022-12-15T08:46:30.922Z,-3.70
2022-12-15T08:47:35.100Z,-3.67
2022-12-15T08:48:38.134Z,-3.64
2022-12-15T08:49:41.030Z,-3.62
2022-12-15T08:50:44.584Z,-3.62
2022-12-15T08:51:50.123Z,-3.60
2022-12-15T08:53:21.447Z,-3.60
2022-12-15T08:54:17.374Z,-3.60
2022-12-15T08:55:22.555Z,-3.60
2022-12-15T08:56:26.907Z,-3.59
2022-12-15T08:57:30.149Z,-3.57
2022-12-15T08:58:32.194Z,-3.58
2022-12-15T08:59:35.425Z,-3.62
2022-12-15T09:00:38.173Z,-3.58
2022-12-15T09:01:40.429Z,-3.60
2022-12-15T09:02:44.934Z,-3.61
2022-12-15T09:03:46.936Z,-3.64
2022-12-15T09:04:50.898Z,-3.61
2022-12-15T09:05:54.052Z,-3.57
2022-12-15T09:06:56.840Z,-3.53
2022-12-15T09:08:06.174Z,-3.52
2022-12-15T09:09:11.183Z,-3.52
2022-12-15T09:10:13.843Z,-3.54
2022-12-15T09:11:15.612Z,-3.54
2022-12-15T09:12:18.334Z,-3.52
2022-12-15T09:13:20.041Z,-3.49
2022-12-15T09:14:28.899Z,-3.48
2022-12-15T09:16:07.063Z,-3.45
2022-12-15T09:16:54.854Z,-3.42
2022-12-15T09:17:59.103Z,-3.39
2022-12-15T09:19:02.001Z,-3.37
2022-12-15T09:20:05.555Z,-3.35
2022-12-15T09:21:08.930Z,-3.32
2022-12-15T09:22:11.829Z,-3.26
2022-12-15T09:23:13.588Z,-3.25
2022-12-15T09:24:25.876Z,-3.22
2022-12-15T09:25:31.831Z,-3.19
2022-12-15T09:26:34.432Z,-3.16
2022-12-15T09:27:37.259Z,-3.14
2022-12-15T09:28:39.431Z,-3.10
2022-12-15T09:29:42.156Z,-3.05
2022-12-15T09:30:44.088Z,-3.00
2022-12-15T09:31:46.870Z,-2.96
2022-12-15T09:32:48.577Z,-2.92
2022-12-15T09:33:54.132Z,-2.87
2022-12-15T09:34:56.897Z,-2.83
2022-12-15T09:35:58.906Z,-2.80
2022-12-15T09:37:01.814Z,-2.76
2022-12-15T09:38:04.576Z,-2.74
2022-12-15T09:39:08.839Z,-2.72
2022-12-15T09:40:13.943Z,-2.68
2022-12-15T09:41:22.211Z,-2.67
2022-12-15T09:42:26.541Z,-2.67
2022-12-15T09:43:34.665Z,-2.63
2022-12-15T09:44:39.287Z,-2.61
2022-12-15T09:45:43.519Z,-2.58
2022-12-15T09:46:54.133Z,-2.57
2022-12-15T09:47:59.517Z,-2.55
2022-12-15T09:49:05.793Z,-2.54
2022-12-15T09:50:12.609Z,-2.55
2022-12-15T09:51:17.370Z,-2.56
2022-12-15T09:52:22.510Z,-2.56
2022-12-15T09:53:53.712Z,-2.55
2022-12-15T09:54:49.209Z,-2.54
2022-12-15T09:55:57.224Z,-2.53
2022-12-15T09:57:03.331Z,-2.52
2022-12-15T09:58:11.141Z,-2.51
2022-12-15T09:59:27.736Z,-2.48
2022-12-15T10:00:33.808Z,-2.46
2022-12-15T10:01:43.422Z,-2.43
2022-12-15T10:03:18.953Z,-2.42
2022-12-15T10:04:32.349Z,-2.39
2022-12-15T10:06:15.612Z,-2.37
2022-12-15T10:07:09.640Z,-2.33
2022-12-15T10:08:13.767Z,-2.29
2022-12-15T10:09:20.174Z,-2.25
2022-12-15T10:10:25.352Z,-2.23
2022-12-15T10:11:41.193Z,-2.20
2022-12-15T10:12:57.660Z,-2.21
2022-12-15T10:14:10.185Z,-2.20
2022-12-15T10:15:18.745Z,-2.19
2022-12-15T10:16:25.265Z,-2.18
2022-12-15T10:17:37.842Z,-2.17
2022-12-15T10:18:43.996Z,-2.14
2022-12-15T10:19:52.360Z,-2.14
2022-12-15T10:20:56.074Z,-2.14
2022-12-15T10:21:59.347Z,-2.13
2022-12-15T10:23:07.153Z,-2.12
2022-12-15T10:24:26.626Z,-2.11
2022-12-15T10:25:39.177Z,-2.09
2022-12-15T10:26:42.585Z,-2.09
2022-12-15T10:28:03.752Z,-2.12
2022-12-15T10:29:19.835Z,-2.15
2022-12-15T10:30:22.839Z,-2.16
2022-12-15T10:31:33.611Z,-2.18
2022-12-15T10:32:50.327Z,-2.18
2022-12-15T10:33:57.165Z,-2.17
2022-12-15T10:35:01.670Z,-2.20
2022-12-15T10:36:08.874Z,-2.17
2022-12-15T10:37:15.074Z,-2.13
2022-12-15T10:38:25.128Z,-2.11
2022-12-15T10:39:39.250Z,-2.06
2022-12-15T10:40:50.398Z,-2.03
2022-12-15T10:42:27.729Z,-1.96
2022-12-15T10:43:31.739Z,-1.92
2022-12-15T10:44:38.675Z,-1.88
2022-12-15T10:45:41.549Z,-1.82
2022-12-15T10:46:46.358Z,-1.78
2022-12-15T10:48:02.445Z,-1.71
2022-12-15T10:49:23.444Z,-1.68
2022-12-15T10:50:27.585Z,-1.66
2022-12-15T10:51:32.497Z,-1.63
2022-12-15T10:52:37.327Z,-1.61
2022-12-15T10:53:40.715Z,-1.60
2022-12-15T10:54:48.349Z,-1.57
2022-12-15T10:56:01.270Z,-1.56
2022-12-15T10:57:17.044Z,-1.54
2022-12-15T10:58:21.320Z,-1.55
2022-12-15T10:59:26.533Z,-1.54
2022-12-15T11:00:31.079Z,-1.52
2022-12-15T11:01:35.908Z,-1.51
2022-12-15T11:02:39.124Z,-1.52
2022-12-15T11:03:41.822Z,-1.52
2022-12-15T11:04:56.418Z,-1.49
2022-12-15T11:06:00.564Z,-1.45
2022-12-15T11:07:05.325Z,-1.44
2022-12-15T11:08:15.815Z,-1.44
2022-12-15T11:09:28.200Z,-1.44
2022-12-15T11:10:53.198Z,-1.44
2022-12-15T11:12:13.491Z,-1.42
2022-12-15T11:13:16.840Z,-1.39
2022-12-15T11:14:24.012Z,-1.38
2022-12-15T11:15:40.190Z,-1.36
2022-12-15T11:16:53.386Z,-1.34
2022-12-15T11:17:58.260Z,-1.37
2022-12-15T11:19:05.990Z,-1.36
2022-12-15T11:20:24.561Z,-1.45
2022-12-15T11:21:30.650Z,-1.47
2022-12-15T11:22:40.791Z,-1.56
2022-12-15T11:23:50.797Z,-1.61
2022-12-15T11:24:55.901Z,-1.64
2022-12-15T11:26:06.799Z,-1.66
2022-12-15T11:27:22.272Z,-1.67
2022-12-15T11:28:28.040Z,-1.64
2022-12-15T11:29:37.469Z,-1.66
2022-12-15T11:30:45.076Z,-1.61
2022-12-15T11:31:48.782Z,-1.64
2022-12-15T11:32:55.709Z,-1.62
2022-12-15T11:33:57.531Z,-1.61
2022-12-15T11:35:00.392Z,-1.60
2022-12-15T11:36:18.710Z,-1.57
2022-12-15T11:37:43.012Z,-1.49
2022-12-15T11:38:50.082Z,-1.43
2022-12-15T11:40:02.509Z,-1.40
2022-12-15T11:41:12.036Z,-1.43
2022-12-15T11:42:17.212Z,-1.48
2022-12-15T11:43:38.410Z,-1.46
2022-12-15T11:44:49.010Z,-1.46
2022-12-15T11:46:01.360Z,-1.42
2022-12-15T11:47:11.159Z,-1.38
2022-12-15T11:48:14.752Z,-1.34
2022-12-15T11:49:41.003Z,-1.29
2022-12-15T11:50:53.350Z,-1.23
2022-12-15T11:52:00.900Z,-1.18
2022-12-15T11:53:13.935Z,-1.14
2022-12-15T11:54:23.733Z,-1.16
2022-12-15T11:55:39.185Z,-1.13
2022-12-15T11:56:45.611Z,-1.12
2022-12-15T11:58:10.182Z,-1.15
2022-12-15T11:59:45.010Z,-1.13
2022-12-15T12:00:54.361Z,-1.11
2022-12-15T12:02:10.476Z,-1.12
2022-12-15T12:03:22.112Z,-1.10
2022-12-15T12:04:27.122Z,-1.07
2022-12-15T12:05:49.080Z,-1.01
2022-12-15T12:07:02.865Z,-1.07
2022-12-15T12:08:22.918Z,-1.06
2022-12-15T12:09:34.800Z,-1.06
2022-12-15T12:10:41.700Z,-1.05
2022-12-15T12:11:48.795Z,-1.07
2022-12-15T12:12:58.705Z,-1.07
2022-12-15T12:14:15.822Z,-1.05
2022-12-15T12:15:28.617Z,-1.03
2022-12-15T12:16:37.537Z,-1.03
2022-12-15T12:17:44.247Z,-1.08
2022-12-15T12:18:53.389Z,-1.09
2022-12-15T12:20:00.000Z,-1.11
2022-12-15T12:21:06.489Z,-1.14
2022-12-15T12:22:14.479Z,-1.16
2022-12-15T12:23:23.180Z,-1.17
2022-12-15T12:24:28.744Z,-1.16
2022-12-15T12:25:34.899Z,-1.15
2022-12-15T12:26:40.557Z,-1.13
2022-12-15T12:27:50.475Z,-1.10
2022-12-15T12:28:58.135Z,-1.08
2022-12-15T12:30:04.210Z,-1.08
2022-12-15T12:31:13.349Z,-1.03
2022-12-15T12:32:21.990Z,-1.00
2022-12-15T12:33:31.338Z,-0.99
2022-12-15T12:34:41.148Z,-0.97
2022-12-15T12:35:46.819Z,-0.92
2022-12-15T12:36:51.908Z,-0.90
2022-12-15T12:38:03.096Z,-0.86
2022-12-15T12:39:10.586Z,-0.82
2022-12-15T12:40:20.121Z,-0.79
2022-12-15T12:41:28.492Z,-0.74
2022-12-15T12:42:37.435Z,-0.71
2022-12-15T12:43:42.872Z,-0.70
2022-12-15T12:44:45.709Z,-0.68
2022-12-15T12:45:54.182Z,-0.64
2022-12-15T12:46:58.199Z,-0.63
2022-12-15T12:48:04.045Z,-0.65
2022-12-15T12:49:10.147Z,-0.67
2022-12-15T12:50:17.244Z,-0.70
2022-12-15T12:51:31.287Z,-0.73
2022-12-15T12:52:36.132Z,-0.77
2022-12-15T12:53:38.898Z,-0.81
2022-12-15T12:54:44.811Z,-0.85
2022-12-15T12:55:47.557Z,-0.89
2022-12-15T12:56:53.146Z,-0.90
2022-12-15T12:57:56.335Z,-0.90
2022-12-15T12:58:58.069Z,-0.87
2022-12-15T13:00:04.608Z,-0.87
2022-12-15T13:01:20.009Z,-0.88
2022-12-15T13:02:47.217Z,-0.86
2022-12-15T13:04:07.701Z,-0.84
2022-12-15T13:05:31.508Z,-0.81
2022-12-15T13:07:00.375Z,-0.80
2022-12-15T13:08:50.830Z,-0.79
2022-12-15T13:10:14.597Z,-0.74
2022-12-15T13:11:57.135Z,-0.73
2022-12-15T13:13:00.318Z,-0.70
2022-12-15T13:14:02.561Z,-0.70
2022-12-15T13:15:11.566Z,-0.71
2022-12-15T13:16:20.445Z,-0.70
2022-12-15T13:17:31.640Z,-0.73
2022-12-15T13:18:57.012Z,-0.72
2022-12-15T13:20:22.765Z,-0.74
2022-12-15T13:21:54.279Z,-0.74
2022-12-15T13:23:18.961Z,-0.71
2022-12-15T13:24:29.220Z,-0.67
2022-12-15T13:25:41.388Z,-0.65
2022-12-15T13:26:45.196Z,-0.65
2022-12-15T13:27:52.083Z,-0.68
2022-12-15T13:28:57.747Z,-0.70
2022-12-15T13:30:01.084Z,-0.74
2022-12-15T13:31:30.415Z,-0.75
2022-12-15T13:32:34.571Z,-0.79
2022-12-15T13:33:44.853Z,-0.82
2022-12-15T13:34:48.250Z,-0.85
2022-12-15T13:35:51.784Z,-0.90
2022-12-15T13:36:56.907Z,-0.94
2022-12-15T13:38:03.729Z,-1.00
2022-12-15T13:39:32.317Z,-1.09
2022-12-15T13:40:55.104Z,-1.12
2022-12-15T13:42:41.598Z,-1.20
2022-12-15T13:43:49.478Z,-1.28
2022-12-15T13:44:55.200Z,-1.33
2022-12-15T13:46:01.874Z,-1.37
2022-12-15T13:47:07.507Z,-1.42
2022-12-15T13:48:18.155Z,-1.45
2022-12-15T13:49:25.738Z,-1.49
2022-12-15T13:50:33.773Z,-1.52
2022-12-15T13:51:39.528Z,-1.54
2022-12-15T13:53:17.341Z,-1.54
2022-12-15T13:54:15.370Z,-1.57
2022-12-15T13:55:27.271Z,-1.56
2022-12-15T13:56:54.506Z,-1.59
2022-12-15T13:57:59.998Z,-1.59
2022-12-15T13:59:06.295Z,-1.59
2022-12-15T14:00:18.408Z,-1.59
2022-12-15T14:01:26.008Z,-1.61
2022-12-15T14:02:33.044Z,-1.63
2022-12-15T14:03:36.314Z,-1.66
2022-12-15T14:04:39.510Z,-1.68
2022-12-15T14:05:43.008Z,-1.70
2022-12-15T14:08:16.108Z,-1.82
2022-12-15T14:09:23.261Z,-1.84
2022-12-15T14:10:31.144Z,-1.89
2022-12-15T14:11:52.582Z,-1.90
2022-12-15T14:12:59.223Z,-1.96
2022-12-15T14:14:01.313Z,-2.00
2022-12-15T14:15:04.303Z,-2.09
2022-12-15T14:16:15.784Z,-2.18
2022-12-15T14:17:19.721Z,-2.20
2022-12-15T14:18:25.086Z,-2.20
2022-12-15T14:19:32.135Z,-2.22
2022-12-15T14:20:41.250Z,-2.22
2022-12-15T14:21:50.092Z,-2.24
2022-12-15T14:22:54.874Z,-2.26
2022-12-15T14:24:37.396Z,-2.25
2022-12-15T14:25:23.394Z,-2.26
2022-12-15T14:26:31.242Z,-2.25
2022-12-15T14:27:34.555Z,-2.24
2022-12-15T14:28:40.491Z,-2.21
2022-12-15T14:29:43.202Z,-2.18
2022-12-15T14:30:45.925Z,-2.17
2022-12-15T14:31:56.155Z,-2.13
2022-12-15T14:32:59.840Z,-2.09
2022-12-15T14:34:04.556Z,-2.06
2022-12-15T14:35:09.571Z,-2.02
2022-12-15T14:36:13.926Z,-2.00
2022-12-15T14:37:18.074Z,-2.00
2022-12-15T14:38:23.777Z,-1.99
2022-12-15T14:39:29.879Z,-1.97
2022-12-15T14:40:32.868Z,-1.96
2022-12-15T14:41:38.790Z,-1.96
2022-12-15T14:42:41.522Z,-1.96
2022-12-15T14:43:45.674Z,-1.95